Time;durP1;ratioP1;P1;durP2;ratioP2;P2;SDS_P1;SDS_P2;PMS_P1;PMS_P2;Temp;Humidity;BMP_temperature;BMP_pressure;BME280_temperature;BME280_humidity;BME280_pressure;Samples;Min_cycle;Max_cycle;Signal;HPM_P1;HPM_P2
2022/05/12 00:02:02;;;;;;;0.90;0.57;;;21.10;99.90;;;;;;5010529;28;20117;-74
2022/05/12 00:04:30;;;;;;;0.00;0.00;;;21.00;99.90;;;;;;5010767;28;20083;-75
2022/05/12 00:06:55;;;;;;;0.00;0.00;;;20.90;99.90;;;;;;5009392;28;20482;-75
2022/05/12 00:09:22;;;;;;;0.10;0.10;;;20.70;99.90;;;;;;5010112;28;20067;-75
2022/05/12 00:11:49;;;;;;;0.80;0.75;;;20.80;99.90;;;;;;5009144;28;20517;-74
2022/05/12 00:14:15;;;;;;;3.75;0.52;;;20.80;99.90;;;;;;5009188;28;20486;-74
2022/05/12 00:16:41;;;;;;;0.05;0.05;;;20.80;99.90;;;;;;5009127;28;20486;-74
2022/05/12 00:19:07;;;;;;;0.22;0.22;;;20.80;99.90;;;;;;5008892;28;20026;-74
2022/05/12 00:21:33;;;;;;;0.00;0.00;;;20.90;99.90;;;;;;4992867;28;20105;-75
2022/05/12 00:23:59;;;;;;;0.75;0.75;;;20.90;99.90;;;;;;5010543;28;20080;-75
2022/05/12 00:26:31;;;;;;;1.42;0.95;;;20.90;99.90;;;;;;5010287;28;20026;-74
2022/05/12 00:28:59;;;;;;;1.38;0.70;;;20.90;99.90;;;;;;5008889;28;20116;-74
2022/05/12 00:31:31;;;;;;;0.40;0.40;;;20.90;99.90;;;;;;5010315;28;20061;-74
2022/05/12 00:33:56;;;;;;;0.80;0.77;;;20.90;99.90;;;;;;5010120;28;20030;-74
2022/05/12 00:36:22;;;;;;;0.28;0.28;;;20.90;99.90;;;;;;5010333;28;20132;-74
2022/05/12 00:38:48;;;;;;;2.83;0.40;;;20.90;99.90;;;;;;5012534;28;20030;-74
2022/05/12 00:41:16;;;;;;;0.40;0.25;;;20.90;99.90;;;;;;5014473;28;20080;-74
2022/05/12 00:43:59;;;;;;;0.00;0.00;;;20.90;99.90;;;;;;5014256;28;20036;-74
2022/05/12 00:46:31;;;;;;;0.00;0.00;;;20.90;99.90;;;;;;5014777;28;20053;-74
2022/05/12 00:49:07;;;;;;;0.60;0.55;;;20.80;99.90;;;;;;5014072;28;20030;-74
2022/05/12 00:51:44;;;;;;;0.15;0.15;;;20.70;99.90;;;;;;5013931;28;20077;-75
2022/05/12 00:54:22;;;;;;;0.00;0.00;;;20.60;99.90;;;;;;5013770;28;20026;-74
2022/05/12 00:56:50;;;;;;;0.03;0.03;;;20.60;99.90;;;;;;5013929;28;20026;-74
2022/05/12 00:59:30;;;;;;;0.10;0.10;;;20.60;99.90;;;;;;5012253;28;20049;-75
2022/05/12 01:01:58;;;;;;;2.20;1.02;;;20.60;99.90;;;;;;5012408;28;20080;-75
2022/05/12 01:04:25;;;;;;;0.00;0.00;;;20.70;99.90;;;;;;5011787;28;20152;-75
2022/05/12 01:06:52;;;;;;;0.55;0.43;;;20.70;99.90;;;;;;5003664;28;20026;-76
2022/05/12 01:09:20;;;;;;;0.17;0.17;;;20.70;99.90;;;;;;5012225;28;20034;-76
2022/05/12 01:11:48;;;;;;;0.10;0.10;;;20.60;99.90;;;;;;5012297;28;20027;-76
2022/05/12 01:14:14;;;;;;;0.00;0.00;;;20.50;99.90;;;;;;5012018;28;20389;-76
2022/05/12 01:16:53;;;;;;;0.05;0.05;;;20.50;99.90;;;;;;4995727;28;20034;-75
2022/05/12 01:19:31;;;;;;;0.20;0.20;;;20.50;99.90;;;;;;4993647;28;20034;-73
2022/05/12 01:21:58;;;;;;;0.85;0.85;;;20.50;99.90;;;;;;4992620;28;20033;-74
2022/05/12 01:24:39;;;;;;;0.52;0.52;;;20.50;99.90;;;;;;5003688;28;20026;-74
2022/05/12 01:27:20;;;;;;;1.02;0.68;;;20.60;99.90;;;;;;5012222;28;20036;-74
2022/05/12 01:29:58;;;;;;;0.13;0.13;;;20.60;99.90;;;;;;5013307;28;20026;-73
2022/05/12 01:32:28;;;;;;;0.00;0.00;;;20.50;99.90;;;;;;5013491;28;20033;-74
2022/05/12 01:34:55;;;;;;;0.30;0.30;;;20.50;99.90;;;;;;5012282;28;20042;-74
2022/05/12 01:37:22;;;;;;;0.28;0.28;;;20.50;99.90;;;;;;5011511;28;20057;-75
2022/05/12 01:39:49;;;;;;;0.43;0.43;;;20.50;99.90;;;;;;5011346;28;20504;-75
2022/05/12 01:42:15;;;;;;;0.00;0.00;;;20.60;99.90;;;;;;4977984;28;20064;-75
2022/05/12 01:44:42;;;;;;;0.20;0.20;;;20.60;99.90;;;;;;4992504;28;20062;-76
2022/05/12 01:47:10;;;;;;;0.00;0.00;;;20.60;99.90;;;;;;4992205;28;20117;-75
2022/05/12 01:49:36;;;;;;;0.00;0.00;;;20.40;99.90;;;;;;4992618;28;20029;-75
2022/05/12 01:52:03;;;;;;;0.15;0.15;;;20.40;99.90;;;;;;4993212;28;20395;-75
2022/05/12 01:54:29;;;;;;;0.10;0.10;;;20.30;99.90;;;;;;4993227;28;20445;-75
2022/05/12 01:56:56;;;;;;;0.00;0.00;;;20.30;99.90;;;;;;4975640;28;20033;-75
2022/05/12 01:59:23;;;;;;;0.40;0.17;;;20.30;99.90;;;;;;4999187;23;20129;-73
2022/05/12 02:01:50;;;;;;;0.00;0.00;;;20.30;99.90;;;;;;4962793;28;20032;-73
2022/05/12 02:04:17;;;;;;;1.15;0.57;;;20.30;99.90;;;;;;4953110;29;20136;-73
2022/05/12 02:06:44;;;;;;;0.00;0.00;;;20.30;99.80;;;;;;4953488;29;20487;-73
2022/05/12 02:09:10;;;;;;;0.10;0.10;;;20.40;99.20;;;;;;4953828;28;20419;-73
2022/05/12 02:11:37;;;;;;;0.00;0.00;;;20.40;99.70;;;;;;4953130;28;20644;-73
2022/05/12 02:14:05;;;;;;;0.17;0.15;;;20.30;99.70;;;;;;4954675;28;20530;-73
2022/05/12 02:16:33;;;;;;;1.10;0.80;;;20.20;99.60;;;;;;4971152;28;20121;-73
2022/05/12 02:19:01;;;;;;;0.00;0.00;;;20.20;99.90;;;;;;4973259;28;20081;-73
2022/05/12 02:21:27;;;;;;;1.35;0.70;;;20.20;99.90;;;;;;4972296;28;20114;-73
2022/05/12 02:23:53;;;;;;;0.20;0.10;;;20.10;99.80;;;;;;4972156;28;20526;-73
2022/05/12 02:26:19;;;;;;;0.00;0.00;;;20.00;99.90;;;;;;4973572;28;20031;-73
2022/05/12 02:28:45;;;;;;;0.20;0.20;;;20.10;99.80;;;;;;4973339;28;20038;-73
2022/05/12 02:31:10;;;;;;;0.30;0.20;;;20.10;99.90;;;;;;4973226;28;20031;-74
2022/05/12 02:33:38;;;;;;;0.05;0.05;;;20.00;99.60;;;;;;4973183;28;20089;-73
2022/05/12 02:36:03;;;;;;;0.00;0.00;;;20.00;99.60;;;;;;4973121;28;20031;-73
2022/05/12 02:38:29;;;;;;;0.00;0.00;;;20.00;99.90;;;;;;4971664;28;20119;-73
2022/05/12 02:40:55;;;;;;;0.00;0.00;;;19.90;99.90;;;;;;4971912;28;20022;-73
2022/05/12 02:43:24;;;;;;;0.47;0.45;;;19.90;99.90;;;;;;4973362;28;20027;-73
2022/05/12 02:46:05;;;;;;;0.32;0.30;;;20.00;99.90;;;;;;4973031;28;20035;-73
2022/05/12 02:48:36;;;;;;;0.00;0.00;;;19.90;99.90;;;;;;4971450;28;20038;-73
2022/05/12 02:51:02;;;;;;;0.00;0.00;;;19.80;99.90;;;;;;4971650;28;20122;-73
2022/05/12 02:53:29;;;;;;;8.40;0.65;;;19.70;99.90;;;;;;4971476;28;20035;-74
2022/05/12 02:55:57;;;;;;;0.00;0.00;;;19.70;99.90;;;;;;4972814;28;20034;-73
2022/05/12 02:58:23;;;;;;;0.00;0.00;;;19.70;99.90;;;;;;4971215;28;20553;-72
2022/05/12 03:00:49;;;;;;;7.03;1.35;;;19.90;99.90;;;;;;4971733;28;20122;-73
2022/05/12 03:03:15;;;;;;;0.10;0.10;;;19.80;99.90;;;;;;4968093;28;20392;-73
2022/05/12 03:05:42;;;;;;;0.00;0.00;;;19.70;99.90;;;;;;4961938;28;20034;-73
2022/05/12 03:08:08;;;;;;;0.75;0.52;;;19.70;99.90;;;;;;4960883;28;20019;-73
2022/05/12 03:10:35;;;;;;;0.13;0.13;;;19.60;99.90;;;;;;4972002;28;20034;-73
2022/05/12 03:13:02;;;;;;;0.00;0.00;;;19.40;99.90;;;;;;4972094;28;20394;-73
2022/05/12 03:15:28;;;;;;;0.10;0.10;;;19.30;99.90;;;;;;4965042;28;20380;-73
2022/05/12 03:17:54;;;;;;;0.10;0.10;;;19.20;99.90;;;;;;4970693;28;20483;-73
2022/05/12 03:20:23;;;;;;;0.00;0.00;;;19.30;99.90;;;;;;4971002;28;20030;-73
2022/05/12 03:22:50;;;;;;;0.00;0.00;;;19.30;99.90;;;;;;4971227;28;20041;-73
2022/05/12 03:25:21;;;;;;;0.20;0.10;;;19.30;99.90;;;;;;4958518;28;20503;-73
2022/05/12 03:27:47;;;;;;;0.15;0.15;;;19.30;99.90;;;;;;4952910;28;20039;-73
2022/05/12 03:30:19;;;;;;;0.40;0.38;;;19.30;99.90;;;;;;4952519;28;20030;-73
2022/05/12 03:32:45;;;;;;;0.10;0.10;;;19.10;99.90;;;;;;4952847;28;20067;-73
2022/05/12 03:35:12;;;;;;;0.00;0.00;;;19.10;99.90;;;;;;4952959;28;20065;-74
2022/05/12 03:37:39;;;;;;;0.00;0.00;;;19.10;99.90;;;;;;4952992;28;20058;-73
2022/05/12 03:40:07;;;;;;;0.00;0.00;;;19.00;99.90;;;;;;4952132;28;20610;-74
2022/05/12 03:42:33;;;;;;;19.55;0.75;;;19.10;99.90;;;;;;4966784;28;20035;-73
2022/05/12 03:44:59;;;;;;;0.00;0.00;;;19.00;99.90;;;;;;4971948;28;20479;-74
2022/05/12 03:47:35;;;;;;;0.10;0.10;;;19.10;99.90;;;;;;4972162;28;20139;-73
2022/05/12 03:50:11;;;;;;;0.75;0.40;;;19.00;99.90;;;;;;4970401;28;20073;-73
2022/05/12 03:52:38;;;;;;;0.20;0.20;;;18.90;99.90;;;;;;4970776;28;20035;-73
2022/05/12 03:55:08;;;;;;;0.10;0.10;;;18.90;99.90;;;;;;4971311;28;20517;-74
2022/05/12 03:57:35;;;;;;;0.90;0.47;;;18.80;99.90;;;;;;4970795;28;20182;-73
2022/05/12 04:00:01;;;;;;;0.00;0.00;;;18.80;99.90;;;;;;4971156;28;20084;-74
2022/05/12 04:02:27;;;;;;;0.10;0.10;;;18.70;99.90;;;;;;4975071;28;20113;-65
2022/05/12 04:04:52;;;;;;;0.00;0.00;;;18.70;99.90;;;;;;4983803;28;20035;-65
2022/05/12 04:07:21;;;;;;;0.00;0.00;;;18.70;99.90;;;;;;4970774;28;20031;-64
2022/05/12 04:09:48;;;;;;;0.93;0.88;;;18.70;99.90;;;;;;4969666;28;20101;-65
2022/05/12 04:12:14;;;;;;;0.43;0.40;;;18.80;99.90;;;;;;4971250;28;20523;-65
2022/05/12 04:14:42;;;;;;;0.00;0.00;;;18.70;99.90;;;;;;4967630;28;20070;-65
2022/05/12 04:17:13;;;;;;;0.45;0.43;;;18.60;99.90;;;;;;4970045;28;20086;-65
2022/05/12 04:19:40;;;;;;;0.00;0.00;;;18.70;99.90;;;;;;4971007;28;20042;-66
2022/05/12 04:22:06;;;;;;;0.20;0.20;;;18.70;99.90;;;;;;4971226;28;20113;-66
2022/05/12 04:24:32;;;;;;;3.03;0.40;;;18.80;99.90;;;;;;4970837;28;20082;-68
2022/05/12 04:26:58;;;;;;;0.05;0.05;;;18.80;99.90;;;;;;4971427;28;20039;-66
2022/05/12 04:29:24;;;;;;;0.00;0.00;;;18.80;99.90;;;;;;4971064;28;20595;-68
2022/05/12 04:31:50;;;;;;;0.00;0.00;;;18.90;99.90;;;;;;4953991;28;20130;-68
2022/05/12 04:37:00;;;;;;;0.47;0.45;;;18.90;99.90;;;;;;4969864;28;20044;-68
2022/05/12 04:39:25;;;;;;;0.00;0.00;;;18.80;99.90;;;;;;4970882;28;20023;-68
2022/05/12 04:41:51;;;;;;;0.20;0.20;;;18.80;99.90;;;;;;4971033;28;20509;-69
2022/05/12 04:44:19;;;;;;;0.00;0.00;;;18.90;99.90;;;;;;4953740;28;20039;-69
2022/05/12 04:46:45;;;;;;;0.00;0.00;;;18.90;99.90;;;;;;4970936;28;20067;-68
2022/05/12 04:49:13;;;;;;;0.13;0.13;;;18.90;99.90;;;;;;4929837;28;20043;-68
2022/05/12 04:51:40;;;;;;;0.00;0.00;;;18.80;99.90;;;;;;4951520;28;20486;-68
2022/05/12 04:54:13;;;;;;;0.13;0.13;;;18.80;99.90;;;;;;4955786;28;20508;-68
2022/05/12 04:56:41;;;;;;;1.38;1.27;;;18.90;99.90;;;;;;4952329;28;20067;-68
2022/05/12 04:59:09;;;;;;;0.00;0.00;;;18.90;99.90;;;;;;4990214;28;20030;-68
2022/05/12 05:01:35;;;;;;;0.68;0.47;;;18.80;99.90;;;;;;4979806;28;20041;-68
2022/05/12 05:04:03;;;;;;;0.00;0.00;;;18.90;99.90;;;;;;5000107;28;20026;-67
2022/05/12 05:06:31;;;;;;;0.00;0.00;;;18.80;99.90;;;;;;4990353;28;20034;-68
2022/05/12 05:08:57;;;;;;;0.00;0.00;;;18.70;99.90;;;;;;4990006;28;20114;-68
2022/05/12 05:11:23;;;;;;;0.25;0.25;;;18.70;99.90;;;;;;4989582;28;20497;-67
2022/05/12 05:13:49;;;;;;;0.10;0.10;;;18.70;99.90;;;;;;4990106;28;20031;-68
2022/05/12 05:16:16;;;;;;;0.00;0.00;;;18.70;99.90;;;;;;4995278;28;20038;-66
2022/05/12 05:18:42;;;;;;;0.52;0.52;;;18.60;99.90;;;;;;4993692;28;20038;-67
2022/05/12 05:21:09;;;;;;;0.10;0.10;;;18.70;99.90;;;;;;4995290;28;20395;-67
2022/05/12 05:23:36;;;;;;;1.48;0.70;;;18.80;99.90;;;;;;4990627;28;20030;-68
2022/05/12 05:26:03;;;;;;;1.08;0.85;;;18.80;99.90;;;;;;4993685;28;20494;-68
2022/05/12 05:28:29;;;;;;;0.00;0.00;;;18.70;99.90;;;;;;4993319;28;20030;-68
2022/05/12 05:30:54;;;;;;;0.40;0.40;;;18.60;99.90;;;;;;4993278;28;20658;-68
2022/05/12 05:33:21;;;;;;;0.98;0.90;;;18.70;99.90;;;;;;5010173;28;20048;-66
2022/05/12 05:35:48;;;;;;;0.00;0.00;;;18.70;99.90;;;;;;5007039;28;20038;-66
2022/05/12 05:38:14;;;;;;;0.15;0.15;;;18.60;99.90;;;;;;4998671;28;20030;-67
2022/05/12 05:40:40;;;;;;;0.95;0.80;;;18.70;99.90;;;;;;5002095;28;20084;-66
2022/05/12 05:43:05;;;;;;;0.00;0.00;;;18.70;99.90;;;;;;5004900;28;20394;-66
2022/05/12 05:45:32;;;;;;;0.00;0.00;;;18.80;99.90;;;;;;5003514;28;20116;-66
2022/05/12 05:48:06;;;;;;;0.15;0.15;;;18.80;99.90;;;;;;4983726;28;20049;-66
2022/05/12 05:53:23;;;;;;;0.05;0.00;;;18.80;99.90;;;;;;5000970;28;20133;-66
2022/05/12 05:53:24;;;;;;;0.10;0.10;;;18.80;99.90;;;;;;4995950;28;20077;-67
2022/05/12 05:55:52;;;;;;;0.10;0.08;;;18.70;99.90;;;;;;4992970;28;20038;-67
2022/05/12 05:58:19;;;;;;;0.20;0.10;;;18.80;99.90;;;;;;4992521;28;20033;-66
2022/05/12 06:00:45;;;;;;;0.00;0.00;;;18.80;99.90;;;;;;4992533;28;20129;-73
2022/05/12 06:03:12;;;;;;;0.03;0.03;;;18.90;99.90;;;;;;5008756;28;20029;-75
2022/05/12 06:05:38;;;;;;;0.00;0.00;;;19.00;99.90;;;;;;5007869;28;20041;-77
2022/05/12 06:08:05;;;;;;;0.00;0.00;;;19.10;99.90;;;;;;5003359;28;20030;-77
2022/05/12 06:10:31;;;;;;;0.00;0.00;;;19.10;99.90;;;;;;4997122;28;20038;-77
2022/05/12 06:12:57;;;;;;;0.20;0.20;;;19.00;99.90;;;;;;4991309;28;20560;-77
2022/05/12 06:15:25;;;;;;;0.00;0.00;;;18.90;99.90;;;;;;4986012;28;20022;-77
2022/05/12 06:17:51;;;;;;;0.00;0.00;;;19.00;99.90;;;;;;4972334;28;20027;-78
2022/05/12 06:20:17;;;;;;;0.45;0.45;;;19.10;99.90;;;;;;4971764;28;20521;-77
2022/05/12 06:22:44;;;;;;;0.00;0.00;;;19.10;99.90;;;;;;4973150;28;20023;-76
2022/05/12 06:25:12;;;;;;;1.00;0.65;;;19.10;99.90;;;;;;4972036;28;20039;-76
2022/05/12 06:27:38;;;;;;;0.05;0.03;;;19.10;99.90;;;;;;4972948;28;20038;-76
2022/05/12 06:30:11;;;;;;;4.07;1.45;;;19.20;99.90;;;;;;4972706;28;20102;-76
2022/05/12 06:32:42;;;;;;;0.00;0.00;;;19.20;99.90;;;;;;4995563;28;20119;-76
2022/05/12 06:35:11;;;;;;;0.00;0.00;;;19.30;99.90;;;;;;5011875;28;20030;-76
2022/05/12 06:37:37;;;;;;;1.08;0.52;;;19.30;99.90;;;;;;5011201;28;20104;-74
2022/05/12 06:40:04;;;;;;;0.45;0.45;;;19.30;99.90;;;;;;5011352;28;20030;-76
2022/05/12 06:42:31;;;;;;;0.47;0.47;;;19.30;99.90;;;;;;5008948;28;20117;-80
2022/05/12 06:44:58;;;;;;;0.10;0.10;;;19.20;99.90;;;;;;4984415;28;20031;-75
2022/05/12 06:47:24;;;;;;;0.17;0.17;;;19.30;99.90;;;;;;4979657;28;20033;-76
2022/05/12 06:49:51;;;;;;;0.00;0.00;;;19.30;99.90;;;;;;5000660;28;20045;-74
2022/05/12 06:52:18;;;;;;;0.10;0.08;;;19.40;99.90;;;;;;4994769;28;20030;-73
2022/05/12 06:54:44;;;;;;;0.20;0.20;;;19.60;99.90;;;;;;4990576;28;20545;-77
2022/05/12 06:57:18;;;;;;;0.00;0.00;;;19.60;99.90;;;;;;4992153;28;20030;-77
2022/05/12 06:59:43;;;;;;;0.00;0.00;;;19.40;99.90;;;;;;4990282;28;20037;-75
2022/05/12 07:02:09;;;;;;;0.00;0.00;;;19.50;99.90;;;;;;4992136;28;20034;-77
2022/05/12 07:04:35;;;;;;;0.00;0.00;;;19.70;99.90;;;;;;4991844;28;20113;-78
2022/05/12 07:07:01;;;;;;;0.03;0.03;;;19.60;99.90;;;;;;4989885;28;20073;-78
2022/05/12 07:09:27;;;;;;;0.00;0.00;;;19.70;99.90;;;;;;4991931;28;20418;-80
2022/05/12 07:11:53;;;;;;;0.10;0.10;;;19.60;99.90;;;;;;4990439;28;20065;-78
2022/05/12 07:14:21;;;;;;;0.00;0.00;;;19.50;99.90;;;;;;4988879;28;20023;-77
2022/05/12 07:16:47;;;;;;;0.00;0.00;;;19.70;99.90;;;;;;4987286;28;20045;-80
2022/05/12 07:19:15;;;;;;;0.00;0.00;;;19.70;99.90;;;;;;4989024;28;20030;-76
2022/05/12 07:27:17;;;;;;;0.00;0.00;;;19.70;99.90;;;;;;4991488;28;20034;-78
2022/05/12 07:29:43;;;;;;;27.92;0.57;;;19.80;99.90;;;;;;4989952;28;20034;-77
2022/05/12 07:32:09;;;;;;;0.00;0.00;;;19.80;99.90;;;;;;4997981;28;20029;-78
2022/05/12 07:34:36;;;;;;;0.00;0.00;;;19.90;99.90;;;;;;5009936;28;20076;-77
2022/05/12 07:37:02;;;;;;;0.90;0.85;;;19.90;99.90;;;;;;5009589;28;20030;-78
2022/05/12 07:39:30;;;;;;;2.45;1.05;;;19.80;99.90;;;;;;4990120;28;20026;-80
2022/05/12 07:41:59;;;;;;;0.00;0.00;;;19.90;99.90;;;;;;4990631;28;20105;-80
2022/05/12 07:44:32;;;;;;;0.00;0.00;;;20.00;99.90;;;;;;4991811;28;20076;-81
2022/05/12 07:47:04;;;;;;;3.47;0.85;;;20.10;99.90;;;;;;4990530;28;20041;-80
2022/05/12 07:49:35;;;;;;;0.00;0.00;;;20.20;99.50;;;;;;5001709;28;20037;-79
2022/05/12 07:52:01;;;;;;;0.00;0.00;;;20.10;99.90;;;;;;4998264;28;20697;-78
2022/05/12 07:54:30;;;;;;;0.00;0.00;;;20.00;99.90;;;;;;4993621;28;20033;-79
2022/05/12 07:56:57;;;;;;;1.75;0.80;;;20.20;99.90;;;;;;4996649;28;20506;-78
2022/05/12 08:01:51;;;;;;;0.32;0.28;;;20.50;99.90;;;;;;5020924;28;20045;-69
2022/05/12 08:04:18;;;;;;;2.80;1.35;;;20.60;99.90;;;;;;5024392;28;20163;-69
2022/05/12 08:06:44;;;;;;;0.00;0.00;;;20.60;99.90;;;;;;5027676;28;20040;-69
2022/05/12 08:09:10;;;;;;;0.00;0.00;;;20.50;99.90;;;;;;5028485;28;20416;-69
2022/05/12 08:11:36;;;;;;;0.20;0.20;;;20.30;99.90;;;;;;5020566;28;20034;-69
2022/05/12 08:14:01;;;;;;;0.00;0.00;;;20.30;99.90;;;;;;5030235;28;20465;-69
2022/05/12 08:16:27;;;;;;;0.00;0.00;;;20.50;99.90;;;;;;5009353;28;20029;-69
2022/05/12 08:18:53;;;;;;;0.00;0.00;;;20.60;99.80;;;;;;5030119;28;20096;-69
2022/05/12 08:21:23;;;;;;;0.00;0.00;;;20.60;99.60;;;;;;5030070;28;20461;-70
2022/05/12 08:23:53;;;;;;;0.00;0.00;;;20.60;99.40;;;;;;5012920;28;20548;-70
2022/05/12 08:26:19;;;;;;;0.17;0.17;;;20.60;98.90;;;;;;5030501;28;20069;-70
2022/05/12 08:28:49;;;;;;;0.00;0.00;;;20.50;98.00;;;;;;5011797;28;20030;-67
2022/05/12 08:31:15;;;;;;;2.83;1.27;;;20.50;98.00;;;;;;5030109;28;20033;-68
2022/05/12 08:33:40;;;;;;;0.10;0.10;;;20.40;97.70;;;;;;5049785;28;20120;-69
2022/05/12 08:36:09;;;;;;;0.70;0.70;;;20.40;97.30;;;;;;5050066;28;20041;-69
2022/05/12 08:38:40;;;;;;;0.00;0.00;;;20.50;96.80;;;;;;5032140;28;20091;-69
2022/05/12 08:41:16;;;;;;;;;;;20.50;96.80;;;;;;5050107;28;20480;-68
2022/05/12 08:43:45;;;;;;;0.03;0.03;;;20.60;96.00;;;;;;5031999;28;19999;-68
2022/05/12 08:46:54;;;;;;;0.43;0.25;;;20.60;96.70;;;;;;5049807;28;20516;-68
2022/05/12 08:49:28;;;;;;;2.83;0.80;;;20.50;95.90;;;;;;5031788;28;20047;-68
2022/05/12 08:52:47;;;;;;;0.00;0.00;;;20.50;96.20;;;;;;5014711;28;20489;-69
2022/05/12 08:55:37;;;;;;;0.00;0.00;;;20.60;96.00;;;;;;5027295;28;20112;-69
2022/05/12 08:58:08;;;;;;;0.20;0.20;;;20.70;96.30;;;;;;5029376;28;20080;-69
2022/05/12 09:00:54;;;;;;;0.00;0.00;;;20.90;95.80;;;;;;5010317;28;20482;-68
2022/05/12 09:03:41;;;;;;;0.10;0.10;;;20.90;95.80;;;;;;5021771;28;20038;-69
2022/05/12 09:06:16;;;;;;;2.25;0.55;;;20.90;95.40;;;;;;5017221;28;20037;-69
2022/05/12 09:09:04;;;;;;;0.08;0.08;;;20.90;95.70;;;;;;5033124;28;20028;-69
2022/05/12 09:12:20;;;;;;;0.00;0.00;;;20.80;95.70;;;;;;5033438;28;20025;-69
2022/05/12 09:15:07;;;;;;;0.20;0.20;;;20.80;95.80;;;;;;5033190;28;20028;-69
2022/05/12 09:17:48;;;;;;;0.00;0.00;;;20.80;95.20;;;;;;5013765;28;20030;-69
2022/05/12 09:20:15;;;;;;;0.10;0.10;;;21.00;95.20;;;;;;5019509;28;20111;-71
2022/05/12 09:22:43;;;;;;;0.28;0.28;;;21.20;96.00;;;;;;5033218;28;20033;-63
2022/05/12 09:25:33;;;;;;;0.13;0.13;;;21.40;95.00;;;;;;5033021;28;20397;-65
2022/05/12 09:28:16;;;;;;;0.13;0.13;;;21.40;94.60;;;;;;5016160;28;20025;-66
2022/05/12 09:30:42;;;;;;;47.85;0.88;;;21.40;94.70;;;;;;5016875;28;20037;-67
2022/05/12 09:33:08;;;;;;;0.65;0.65;;;21.40;94.50;;;;;;5032609;28;20053;-67
2022/05/12 09:35:35;;;;;;;0.00;0.00;;;21.50;94.40;;;;;;5031392;28;20037;-67
2022/05/12 09:38:22;;;;;;;0.00;0.00;;;21.50;95.00;;;;;;4995187;28;20396;-68
2022/05/12 09:41:43;;;;;;;9.32;2.20;;;21.60;94.40;;;;;;5087174;27;20405;-66
2022/05/12 09:44:25;;;;;;;3.90;2.65;;;21.80;93.80;;;;;;5067711;28;20072;-66
2022/05/12 09:47:11;;;;;;;1.30;0.90;;;21.80;94.20;;;;;;5067867;28;20544;-69
2022/05/12 09:49:41;;;;;;;0.00;0.00;;;22.00;94.40;;;;;;5072930;28;20024;-70
2022/05/12 09:52:22;;;;;;;0.00;0.00;;;22.00;93.80;;;;;;5067202;28;20123;-69
2022/05/12 09:54:48;;;;;;;2.63;0.47;;;22.20;93.50;;;;;;5066906;28;20101;-69
2022/05/12 09:57:26;;;;;;;5.97;1.90;;;22.50;92.90;;;;;;5059620;28;20039;-69
2022/05/12 09:59:58;;;;;;;0.00;0.00;;;22.30;91.40;;;;;;5044649;28;20087;-69
2022/05/12 10:08:25;;;;;;;0.00;0.00;;;22.30;91.50;;;;;;5079792;28;20031;-68
2022/05/12 10:10:59;;;;;;;0.00;0.00;;;22.30;90.90;;;;;;5081474;28;20036;-67
2022/05/12 10:13:42;;;;;;;0.00;0.00;;;22.30;91.20;;;;;;5082106;28;20097;-69
2022/05/12 10:16:09;;;;;;;0.00;0.00;;;22.60;91.30;;;;;;5066817;28;20044;-67
2022/05/12 10:18:52;;;;;;;0.10;0.10;;;22.70;90.40;;;;;;5081969;28;20489;-69
2022/05/12 10:21:24;;;;;;;5.57;0.63;;;22.70;90.50;;;;;;5070802;28;20029;-69
2022/05/12 10:24:24;;;;;;;0.00;0.00;;;22.70;90.60;;;;;;5045817;28;20037;-70
2022/05/12 10:26:56;;;;;;;29.05;3.20;;;22.70;90.60;;;;;;5046763;28;20033;-68
2022/05/12 10:29:58;;;;;;;2.03;0.95;;;22.70;90.40;;;;;;5044958;28;20029;-67
2022/05/12 10:33:20;;;;;;;0.25;0.10;;;22.60;90.00;;;;;;5060535;28;20040;-69
2022/05/12 10:36:22;;;;;;;0.55;0.55;;;22.70;90.30;;;;;;5059960;28;20086;-71
2022/05/12 10:39:13;;;;;;;0.35;0.22;;;22.80;89.00;;;;;;5066260;28;20500;-69
2022/05/12 10:41:48;;;;;;;0.00;0.00;;;22.80;89.70;;;;;;5080674;28;20064;-70
2022/05/12 10:44:42;;;;;;;1.02;0.43;;;22.50;90.50;;;;;;5064760;28;20041;-68
2022/05/12 10:47:40;;;;;;;0.00;0.00;;;22.50;90.20;;;;;;5066509;28;20515;-71
2022/05/12 10:50:29;;;;;;;0.00;0.00;;;23.00;90.40;;;;;;5065827;28;20028;-69
2022/05/12 10:53:11;;;;;;;0.52;0.52;;;23.00;88.60;;;;;;5066988;28;20100;-70
2022/05/12 10:56:00;;;;;;;0.00;0.00;;;22.90;90.10;;;;;;5067799;28;20021;-69
2022/05/12 10:58:57;;;;;;;0.00;0.00;;;23.00;89.40;;;;;;5068561;28;20025;-70
2022/05/12 11:01:34;;;;;;;0.10;0.10;;;23.20;88.80;;;;;;5067128;28;20021;-70
2022/05/12 11:04:21;;;;;;;0.00;0.00;;;23.10;89.40;;;;;;5087431;28;20036;-70
2022/05/12 11:07:00;;;;;;;0.00;0.00;;;23.30;89.40;;;;;;5087511;28;20031;-68
2022/05/12 11:09:44;;;;;;;0.00;0.00;;;23.40;89.20;;;;;;5087248;28;20496;-68
2022/05/12 11:12:39;;;;;;;6.70;1.85;;;23.40;87.70;;;;;;5067863;28;20556;-68
2022/05/12 11:15:15;;;;;;;0.00;0.00;;;23.30;87.40;;;;;;5066929;28;20095;-69
2022/05/12 11:17:59;;;;;;;0.00;0.00;;;23.30;89.00;;;;;;5052724;28;20115;-68
2022/05/12 11:20:36;;;;;;;0.68;0.68;;;23.20;87.70;;;;;;5051920;28;20425;-68
2022/05/12 11:23:26;;;;;;;0.00;0.00;;;23.40;87.10;;;;;;5066551;28;20496;-69
2022/05/12 11:26:43;;;;;;;0.05;0.05;;;23.60;86.00;;;;;;5048036;28;20048;-65
2022/05/12 11:29:50;;;;;;;0.00;0.00;;;23.70;86.20;;;;;;5047283;28;20114;-67
2022/05/12 11:32:37;;;;;;;1.27;0.77;;;23.80;85.70;;;;;;5058606;28;20457;-67
2022/05/12 11:35:32;;;;;;;0.20;0.20;;;23.70;85.80;;;;;;5063311;28;20025;-67
2022/05/12 11:38:05;;;;;;;1.75;0.80;;;23.70;86.20;;;;;;5064441;28;20032;-66
2022/05/12 11:40:41;;;;;;;0.10;0.10;;;23.60;86.10;;;;;;5050137;28;20505;-66
2022/05/12 11:46:46;;;;;;;0.55;0.15;;;24.30;85.00;;;;;;5051825;28;20087;-67
2022/05/12 11:49:40;;;;;;;0.00;0.00;;;24.30;84.30;;;;;;5051235;28;20393;-67
2022/05/12 11:52:38;;;;;;;0.10;0.10;;;24.00;84.80;;;;;;5048771;28;20108;-68
2022/05/12 11:55:32;;;;;;;0.00;0.00;;;23.80;85.20;;;;;;5050825;28;20094;-67
2022/05/12 11:58:12;;;;;;;1.85;0.17;;;23.90;86.00;;;;;;5047084;28;20102;-67
2022/05/12 12:00:38;;;;;;;0.00;0.00;;;24.30;85.70;;;;;;5066031;28;20495;-67
2022/05/12 12:03:18;;;;;;;0.00;0.00;;;24.00;85.30;;;;;;5065898;28;20078;-66
2022/05/12 12:05:50;;;;;;;0.30;0.30;;;23.80;85.60;;;;;;5071656;28;20508;-66
2022/05/12 12:08:31;;;;;;;0.00;0.00;;;23.70;86.50;;;;;;5071364;28;20511;-67
2022/05/12 12:11:20;;;;;;;0.00;0.00;;;24.00;84.60;;;;;;5061980;28;20033;-67
2022/05/12 12:14:00;;;;;;;0.00;0.00;;;23.90;84.20;;;;;;5041642;28;20041;-67
2022/05/12 12:16:52;;;;;;;0.00;0.00;;;24.00;83.90;;;;;;5066563;28;20037;-67
2022/05/12 12:19:49;;;;;;;0.00;0.00;;;24.00;85.20;;;;;;5064107;28;20037;-67
2022/05/12 12:22:43;;;;;;;0.10;0.10;;;24.10;83.90;;;;;;5049771;28;20036;-67
2022/05/12 12:25:09;;;;;;;0.35;0.30;;;24.00;84.70;;;;;;5051613;28;20040;-66
2022/05/12 12:27:59;;;;;;;3.75;2.17;;;24.00;85.10;;;;;;5031035;28;20034;-67
2022/05/12 12:30:55;;;;;;;0.60;0.50;;;24.00;84.10;;;;;;5030658;28;20171;-67
2022/05/12 12:33:24;;;;;;;0.00;0.00;;;24.30;83.80;;;;;;5041340;28;20033;-67
2022/05/12 12:36:12;;;;;;;0.20;0.20;;;24.40;81.40;;;;;;5044927;28;20048;-68
2022/05/12 12:38:44;;;;;;;0.40;0.40;;;24.60;81.30;;;;;;5046626;28;20032;-67
2022/05/12 12:41:31;;;;;;;9.75;0.80;;;24.50;80.50;;;;;;5051073;28;20056;-67
2022/05/12 12:44:22;;;;;;;0.00;0.00;;;24.40;81.30;;;;;;5049648;28;20029;-66
2022/05/12 12:47:12;;;;;;;0.00;0.00;;;24.30;81.70;;;;;;5046578;28;20025;-66
2022/05/12 12:50:16;;;;;;;2.70;0.85;;;24.70;81.40;;;;;;5061205;28;20040;-66
2022/05/12 12:52:45;;;;;;;0.45;0.45;;;24.70;80.10;;;;;;5030992;28;20032;-66
2022/05/12 12:58:12;;;;;;;0.52;0.43;;;24.80;80.50;;;;;;5030402;28;20171;-66
2022/05/12 13:00:38;;;;;;;0.00;0.00;;;25.10;79.50;;;;;;5029143;28;20052;-65
2022/05/12 13:03:21;;;;;;;0.08;0.08;;;25.20;79.90;;;;;;5041343;28;20025;-67
2022/05/12 13:05:48;;;;;;;0.00;0.00;;;24.90;79.70;;;;;;5063664;28;20103;-67
2022/05/12 13:08:30;;;;;;;0.10;0.10;;;25.00;78.70;;;;;;5065302;28;20023;-67
2022/05/12 13:11:03;;;;;;;0.00;0.00;;;25.30;79.00;;;;;;5048440;28;20051;-68
2022/05/12 13:13:29;;;;;;;0.00;0.00;;;25.10;79.40;;;;;;5049361;28;20083;-66
2022/05/12 13:16:00;;;;;;;0.00;0.00;;;25.20;79.10;;;;;;5050010;28;20111;-66
2022/05/12 13:18:33;;;;;;;0.10;0.10;;;25.50;78.10;;;;;;5065096;28;20039;-65
2022/05/12 13:21:03;;;;;;;2.17;1.25;;;25.50;77.80;;;;;;5048698;28;20086;-66
2022/05/12 13:23:35;;;;;;;0.00;0.00;;;25.80;78.90;;;;;;5065358;28;20029;-67
2022/05/12 13:26:07;;;;;;;0.17;0.15;;;25.80;76.60;;;;;;5050170;28;20025;-65
2022/05/12 13:28:37;;;;;;;5.25;0.32;;;25.70;77.10;;;;;;5064866;28;20043;-66
2022/05/12 13:31:21;;;;;;;0.47;0.38;;;25.90;77.20;;;;;;5064959;28;20024;-67
2022/05/12 13:34:14;;;;;;;0.52;0.35;;;26.30;76.00;;;;;;5050410;28;20037;-66
2022/05/12 13:36:48;;;;;;;0.95;0.75;;;26.90;75.30;;;;;;5050120;28;20068;-65
2022/05/12 13:39:51;;;;;;;0.00;0.00;;;25.90;76.30;;;;;;5064489;28;20512;-65
2022/05/12 13:42:30;;;;;;;0.10;0.10;;;25.70;77.10;;;;;;5048881;28;20143;-65